This is the latest recevied weather packets stored in our database for station/object W9GWP. If no packets are shown the sender has not sent any weather packets the latest 10 day(s).
| Time | Temp. | Humidity | Pressure | Rain* | Wind** | Luminosity | Snow |
|---|---|---|---|---|---|---|---|
| 1777958815 | 15.56° C | 42% | 1031.2 hPa | 0 mm | - | 0 W/m² | - |
| 1777957913 | 15.56° C | 42% | 1031 hPa | 0 mm | - | 0 W/m² | - |
| 1777957009 | 16.11° C | 44% | 1030.8 hPa | 0 mm | - | 0 W/m² | - |
| 1777956107 | 16.67° C | 42% | 1030.9 hPa | 0 mm | - | 0 W/m² | - |
| 1777955208 | 16.67° C | 45% | 1030.7 hPa | 0 mm | - | 0 W/m² | - |
| 1777954306 | 17.22° C | 43% | 1030.5 hPa | 0 mm | - | 0 W/m² | - |
| 1777953402 | 17.78° C | 43% | 1030.4 hPa | 0 mm | - | 0 W/m² | - |
| 1777952498 | 18.33° C | 44% | 1029.9 hPa | 0 mm | - | 0 W/m² | - |
| 1777951596 | 18.89° C | 42% | 1029.3 hPa | 0 mm | - | 0 W/m² | - |
| 1777950691 | 19.44° C | 42% | 1029.4 hPa | 0 mm | - | 0 W/m² | - |
| 1777949786 | 20° C | 47% | 1029.5 hPa | 0 mm | - | 0 W/m² | - |
| 1777948885 | 20° C | 51% | 1029.2 hPa | 0 mm | - | 0 W/m² | - |
| 1777947982 | 19.44° C | 62% | 1028.8 hPa | 0 mm | - | 0 W/m² | - |
| 1777947078 | 19.44° C | 67% | 1028.6 hPa | 0 mm | - | 0 W/m² | - |
| 1777946173 | 19.44° C | 67% | 1028 hPa | 0 mm | - | 0 W/m² | - |
| 1777945270 | 19.44° C | 65% | 1027.4 hPa | 0 mm | - | 0 W/m² | - |
| 1777944368 | 20° C | 61% | 1027.2 hPa | 0 mm | - | 0 W/m² | - |
| 1777943464 | 20.56° C | 56% | 1027.2 hPa | 0 mm | - | 0 W/m² | - |
| 1777942563 | 21.67° C | 50% | 1026.8 hPa | 0 mm | - | 0 W/m² | - |
| 1777941660 | 22.22° C | 48% | 1026.2 hPa | 0 mm | - | 11 W/m² | - |
| 1777940755 | 22.22° C | 46% | 1025.9 hPa | 0 mm | - | 17 W/m² | - |
| 1777939854 | 22.78° C | 44% | 1026 hPa | 0 mm | - | 29 W/m² | - |
| 1777938952 | 22.78° C | 43% | 1025.7 hPa | 0 mm | - | 37 W/m² | - |
| 1777938048 | 23.89° C | 42% | 1025.9 hPa | 0 mm | - | 48 W/m² | - |
| 1777937143 | 23.89° C | 42% | 1026.1 hPa | 0 mm | - | 171 W/m² | - |
* Rain latest hour (hover to see other rain measurements)
** Current wind speed in m/s (hover to see current wind gust speed)